Time;durP1;ratioP1;P1;durP2;ratioP2;P2;SDS_P1;SDS_P2;PMS_P1;PMS_P2;Temp;Humidity;BMP_temperature;BMP_pressure;BME280_temperature;BME280_humidity;BME280_pressure;Samples;Min_cycle;Max_cycle;Signal;HPM_P1;HPM_P2
2021/10/29 00:00:18;;;;;;;25.13;19.63;;;6.30;99.90;;;;;;5037122;28;20025;-75
2021/10/29 00:02:44;;;;;;;24.35;18.58;;;6.20;99.90;;;;;;5038055;23;20068;-76
2021/10/29 00:05:10;;;;;;;26.42;18.58;;;6.20;99.90;;;;;;5020388;28;20393;-77
2021/10/29 00:07:36;;;;;;;31.17;20.48;;;6.20;99.90;;;;;;5030442;28;20389;-76
2021/10/29 00:10:04;;;;;;;23.67;17.52;;;6.20;99.90;;;;;;5030333;28;20032;-76
2021/10/29 00:12:29;;;;;;;29.00;18.77;;;6.20;99.90;;;;;;5027332;28;20053;-76
2021/10/29 00:14:56;;;;;;;22.65;18.40;;;6.10;99.90;;;;;;5012327;28;20482;-76
2021/10/29 00:17:21;;;;;;;23.48;18.27;;;6.20;99.90;;;;;;5013344;28;20456;-77
2021/10/29 00:19:47;;;;;;;26.05;18.27;;;6.20;99.90;;;;;;5012694;28;20037;-75
2021/10/29 00:22:13;;;;;;;31.67;20.08;;;6.20;99.90;;;;;;5012741;28;20164;-76
2021/10/29 00:24:39;;;;;;;28.45;20.67;;;6.20;99.90;;;;;;5012424;28;20026;-77
2021/10/29 00:27:04;;;;;;;26.23;20.50;;;6.20;99.90;;;;;;4999392;28;20032;-76
2021/10/29 00:29:30;;;;;;;24.90;19.83;;;6.20;99.90;;;;;;5011765;28;20498;-76
2021/10/29 00:31:55;;;;;;;33.60;22.30;;;6.20;99.90;;;;;;5012016;28;20040;-77
2021/10/29 00:34:21;;;;;;;27.30;21.85;;;6.10;99.90;;;;;;5011913;28;20029;-77
2021/10/29 00:36:47;;;;;;;27.52;20.48;;;6.10;99.90;;;;;;5012248;28;20022;-76
2021/10/29 00:39:14;;;;;;;33.83;20.85;;;6.10;99.90;;;;;;5012347;28;20033;-77
2021/10/29 00:41:40;;;;;;;25.30;20.40;;;6.00;99.90;;;;;;5009513;28;20025;-76
2021/10/29 00:44:06;;;;;;;25.38;18.98;;;6.00;99.90;;;;;;5007941;28;20017;-76
2021/10/29 00:46:33;;;;;;;30.45;20.55;;;6.00;99.90;;;;;;5010056;28;20030;-76
2021/10/29 00:48:58;;;;;;;30.35;19.58;;;6.00;99.90;;;;;;5014214;28;20030;-75
2021/10/29 00:51:24;;;;;;;25.05;18.70;;;5.90;99.90;;;;;;5024329;28;20010;-76
2021/10/29 00:53:50;;;;;;;27.23;20.48;;;5.90;99.90;;;;;;5038764;28;20041;-76
2021/10/29 00:56:18;;;;;;;25.92;19.60;;;5.90;99.90;;;;;;5038761;28;20038;-77
2021/10/29 00:58:44;;;;;;;26.73;19.98;;;5.90;99.90;;;;;;5023272;28;20096;-77
2021/10/29 01:01:10;;;;;;;28.98;20.55;;;5.90;99.90;;;;;;5020626;28;20061;-77
2021/10/29 01:03:38;;;;;;;25.13;19.48;;;5.90;99.90;;;;;;5021125;28;20061;-75
2021/10/29 01:06:04;;;;;;;28.63;20.20;;;5.90;99.90;;;;;;5016907;28;20037;-77
2021/10/29 01:08:30;;;;;;;24.30;19.17;;;5.80;99.90;;;;;;5016526;28;20033;-76
2021/10/29 01:10:56;;;;;;;23.65;17.92;;;5.80;99.90;;;;;;5017351;28;20084;-75
2021/10/29 01:13:22;;;;;;;26.80;19.35;;;5.90;99.90;;;;;;5017042;28;20026;-76
2021/10/29 01:15:47;;;;;;;24.75;18.90;;;5.80;99.90;;;;;;5008879;28;20030;-78
2021/10/29 01:18:14;;;;;;;28.35;18.58;;;5.80;99.90;;;;;;5029968;28;20018;-77
2021/10/29 01:20:39;;;;;;;26.63;18.00;;;5.90;99.90;;;;;;5017562;28;20129;-76
2021/10/29 01:23:05;;;;;;;30.98;19.58;;;5.80;99.90;;;;;;5017033;28;20092;-76
2021/10/29 01:25:30;;;;;;;26.80;18.83;;;5.80;99.90;;;;;;5014247;28;20034;-77
2021/10/29 01:27:56;;;;;;;27.05;18.92;;;5.80;99.90;;;;;;5015244;28;20513;-76
2021/10/29 01:30:22;;;;;;;27.75;19.08;;;5.80;99.90;;;;;;5014396;28;20026;-76
2021/10/29 01:32:47;;;;;;;23.83;18.73;;;5.80;99.90;;;;;;5014541;28;20482;-76
2021/10/29 01:35:14;;;;;;;26.45;18.67;;;5.70;99.90;;;;;;5014099;28;20529;-76
2021/10/29 01:37:41;;;;;;;27.08;19.83;;;5.70;99.90;;;;;;5011043;28;20114;-76
2021/10/29 01:40:10;;;;;;;24.10;19.52;;;5.60;99.90;;;;;;5015634;28;20414;-75
2021/10/29 01:42:37;;;;;;;25.67;19.92;;;5.60;99.90;;;;;;5023911;28;20025;-76
2021/10/29 01:45:07;;;;;;;25.88;18.58;;;5.70;99.90;;;;;;5014586;28;20018;-77
2021/10/29 01:47:33;;;;;;;25.90;17.83;;;5.60;99.90;;;;;;5014688;28;20503;-76
2021/10/29 01:49:59;;;;;;;25.63;19.35;;;5.60;99.90;;;;;;5013806;28;20101;-76
2021/10/29 01:52:25;;;;;;;27.80;18.88;;;5.60;99.90;;;;;;5014128;28;20395;-76
2021/10/29 01:54:51;;;;;;;20.92;17.25;;;5.60;99.90;;;;;;5014478;28;20025;-76
2021/10/29 01:57:16;;;;;;;24.02;17.27;;;5.60;99.90;;;;;;5014552;28;20034;-76
2021/10/29 01:59:42;;;;;;;23.85;17.02;;;5.60;99.90;;;;;;5014651;28;20038;-76
2021/10/29 02:02:08;;;;;;;23.13;18.05;;;5.60;99.90;;;;;;5014012;28;20103;-77
2021/10/29 02:04:33;;;;;;;25.42;18.33;;;5.60;99.90;;;;;;5012421;28;20053;-76
2021/10/29 02:06:59;;;;;;;22.65;17.55;;;5.60;99.90;;;;;;5014027;28;20084;-75
2021/10/29 02:09:24;;;;;;;23.90;18.38;;;5.60;99.90;;;;;;5013579;28;20558;-75
2021/10/29 02:11:50;;;;;;;25.15;19.42;;;5.60;99.90;;;;;;5013587;28;20034;-76
2021/10/29 02:14:15;;;;;;;21.95;17.75;;;5.50;99.90;;;;;;5013248;28;20073;-76
2021/10/29 02:16:42;;;;;;;21.88;17.88;;;5.50;99.90;;;;;;5013667;28;20390;-76
2021/10/29 02:19:08;;;;;;;23.70;17.10;;;5.60;99.90;;;;;;5013754;28;20080;-76
2021/10/29 02:21:34;;;;;;;27.90;19.85;;;5.50;99.90;;;;;;5013659;28;20042;-77
2021/10/29 02:23:59;;;;;;;26.10;17.95;;;5.50;99.90;;;;;;5013341;28;20478;-75
2021/10/29 02:26:26;;;;;;;27.85;19.65;;;5.50;99.90;;;;;;5013784;28;20509;-77
2021/10/29 02:28:51;;;;;;;26.90;18.13;;;5.60;99.90;;;;;;5013921;28;20032;-77
2021/10/29 02:31:17;;;;;;;29.67;20.23;;;5.60;99.90;;;;;;5013762;28;20029;-77
2021/10/29 02:33:43;;;;;;;28.55;18.33;;;5.60;99.90;;;;;;5014609;28;20025;-76
2021/10/29 02:36:09;;;;;;;27.67;21.50;;;5.60;99.90;;;;;;5006700;28;20390;-76
2021/10/29 02:38:34;;;;;;;31.80;20.75;;;5.60;99.90;;;;;;5010131;28;20038;-76
2021/10/29 02:41:01;;;;;;;28.90;21.48;;;5.80;99.90;;;;;;5005206;28;20041;-77
2021/10/29 02:43:28;;;;;;;25.85;18.50;;;5.90;99.90;;;;;;5003609;28;20124;-75
2021/10/29 02:45:54;;;;;;;27.92;20.00;;;6.00;99.90;;;;;;5009530;28;20030;-77
2021/10/29 02:48:20;;;;;;;24.83;18.40;;;5.80;99.90;;;;;;5013069;28;20472;-76
2021/10/29 02:50:45;;;;;;;24.80;19.05;;;5.70;99.90;;;;;;5013815;28;20052;-76
2021/10/29 02:53:11;;;;;;;23.00;17.30;;;5.60;99.90;;;;;;5013057;28;20033;-76
2021/10/29 02:55:37;;;;;;;24.67;18.85;;;5.60;99.90;;;;;;5012939;28;20055;-75
2021/10/29 02:58:04;;;;;;;23.80;19.52;;;5.50;99.90;;;;;;5013293;28;20025;-75
2021/10/29 03:00:30;;;;;;;25.48;19.45;;;5.50;99.90;;;;;;5010420;28;20486;-76
2021/10/29 03:02:57;;;;;;;26.67;18.48;;;5.40;99.90;;;;;;5007188;28;20084;-77
2021/10/29 03:05:23;;;;;;;27.02;19.20;;;5.40;99.90;;;;;;5013907;28;20033;-75
2021/10/29 03:07:49;;;;;;;28.38;20.65;;;5.40;99.90;;;;;;5011499;28;20014;-76
2021/10/29 03:10:15;;;;;;;30.98;19.80;;;5.40;99.90;;;;;;5005160;28;20036;-75
2021/10/29 03:12:41;;;;;;;23.48;18.63;;;5.30;99.90;;;;;;5012272;28;20081;-76
2021/10/29 03:15:08;;;;;;;30.27;19.70;;;5.30;99.90;;;;;;5013987;28;20018;-77
2021/10/29 03:17:34;;;;;;;25.88;19.25;;;5.30;99.90;;;;;;5016358;28;20034;-76
2021/10/29 03:19:59;;;;;;;29.77;20.50;;;5.30;99.90;;;;;;5017346;28;20029;-75
2021/10/29 03:22:25;;;;;;;33.22;21.42;;;5.40;99.90;;;;;;5013533;28;20038;-76
2021/10/29 03:24:52;;;;;;;27.40;19.25;;;5.50;99.90;;;;;;5014351;28;20049;-76
2021/10/29 03:27:19;;;;;;;25.42;18.52;;;5.60;99.90;;;;;;5020655;28;20080;-75
2021/10/29 03:29:45;;;;;;;28.88;20.45;;;5.70;99.90;;;;;;5021479;28;20086;-75
2021/10/29 03:32:11;;;;;;;28.90;18.48;;;5.80;99.90;;;;;;5019268;28;20072;-76
2021/10/29 03:34:37;;;;;;;26.75;19.40;;;5.90;99.90;;;;;;5017870;28;20018;-75
2021/10/29 03:37:05;;;;;;;25.92;18.40;;;5.90;99.90;;;;;;5013670;28;20097;-76
2021/10/29 03:39:36;;;;;;;26.77;18.75;;;5.70;99.90;;;;;;5012623;28;20120;-74
2021/10/29 03:42:09;;;;;;;;;;;5.70;99.90;;;;;;5012153;28;20026;-77
2021/10/29 03:44:47;;;;;;;27.17;19.40;;;5.50;99.90;;;;;;5014503;28;19905;-76
2021/10/29 03:47:13;;;;;;;26.02;19.30;;;5.40;99.90;;;;;;5011067;28;20461;-76
2021/10/29 03:52:30;;;;;;;29.35;18.35;;;5.50;99.90;;;;;;5030020;28;20033;-76
2021/10/29 03:54:58;;;;;;;19.58;17.02;;;5.50;99.90;;;;;;5030321;28;20413;-77
2021/10/29 03:57:25;;;;;;;26.75;19.92;;;5.40;99.90;;;;;;5035413;28;20040;-76
2021/10/29 03:59:53;;;;;;;29.33;19.88;;;5.30;99.90;;;;;;5036498;28;20045;-77
2021/10/29 04:02:18;;;;;;;27.60;20.13;;;5.20;99.90;;;;;;5023947;28;20414;-77
2021/10/29 04:04:45;;;;;;;25.20;18.65;;;5.10;99.90;;;;;;5015733;28;20026;-75
2021/10/29 04:07:10;;;;;;;25.52;19.02;;;5.00;99.90;;;;;;5014500;28;20038;-75
2021/10/29 04:09:36;;;;;;;33.53;18.50;;;5.00;99.90;;;;;;5013776;28;20202;-76
2021/10/29 04:12:02;;;;;;;26.83;19.02;;;5.00;99.90;;;;;;5013913;28;20486;-76
2021/10/29 04:14:29;;;;;;;26.35;18.98;;;5.00;99.90;;;;;;5010787;28;20021;-75
2021/10/29 04:16:55;;;;;;;20.70;16.52;;;5.10;99.90;;;;;;5013104;28;20389;-76
2021/10/29 04:19:21;;;;;;;21.55;16.70;;;5.00;99.90;;;;;;5012584;28;20529;-77
2021/10/29 04:21:47;;;;;;;20.60;17.38;;;5.00;99.90;;;;;;5013620;28;20033;-76
2021/10/29 04:24:12;;;;;;;25.50;17.45;;;5.00;99.90;;;;;;5013621;28;20056;-77
2021/10/29 04:26:39;;;;;;;23.55;17.10;;;5.20;99.90;;;;;;5014016;28;20061;-76
2021/10/29 04:29:17;;;;;;;26.23;17.77;;;5.20;99.90;;;;;;5021120;28;20045;-75
2021/10/29 04:31:50;;;;;;;29.13;16.95;;;5.20;99.90;;;;;;5011754;28;20021;-76
2021/10/29 04:34:24;;;;;;;24.60;17.48;;;5.00;99.90;;;;;;5014152;28;20022;-75
2021/10/29 04:36:50;;;;;;;26.92;17.13;;;4.90;99.90;;;;;;5015745;28;20025;-76
2021/10/29 04:39:16;;;;;;;31.55;19.30;;;4.80;99.90;;;;;;5016232;28;20581;-78
2021/10/29 04:41:46;;;;;;;25.75;18.63;;;4.70;99.90;;;;;;5017361;28;20404;-77
2021/10/29 04:44:12;;;;;;;29.10;18.80;;;4.60;99.90;;;;;;5017367;28;20130;-76
2021/10/29 04:46:38;;;;;;;27.38;21.40;;;4.60;99.90;;;;;;5016783;28;20018;-76
2021/10/29 04:49:04;;;;;;;28.88;17.42;;;4.60;99.90;;;;;;5016149;28;20105;-76
2021/10/29 04:51:32;;;;;;;23.73;18.08;;;4.60;99.90;;;;;;5016170;28;20040;-76
2021/10/29 04:53:58;;;;;;;25.63;17.75;;;4.60;99.90;;;;;;5015389;28;20049;-77
2021/10/29 04:56:24;;;;;;;32.22;16.85;;;4.60;99.90;;;;;;5017818;28;20490;-75
2021/10/29 04:58:49;;;;;;;19.73;16.75;;;4.80;99.90;;;;;;5015109;28;20228;-77
2021/10/29 05:01:15;;;;;;;27.48;17.20;;;4.90;99.90;;;;;;5016942;28;20044;-77
2021/10/29 05:03:41;;;;;;;24.92;17.70;;;4.80;99.90;;;;;;5016878;28;20521;-76
2021/10/29 05:06:08;;;;;;;22.50;16.60;;;4.90;99.90;;;;;;5016645;28;20034;-76
2021/10/29 05:08:36;;;;;;;23.83;16.50;;;4.80;99.90;;;;;;5017035;28;20049;-76
2021/10/29 05:11:01;;;;;;;22.83;16.02;;;4.70;99.90;;;;;;5042584;28;20036;-76
2021/10/29 05:13:27;;;;;;;18.42;15.25;;;4.80;99.90;;;;;;5017240;28;20382;-76
2021/10/29 05:15:53;;;;;;;24.23;15.52;;;4.80;99.90;;;;;;5014346;28;20026;-77
2021/10/29 05:18:20;;;;;;;23.08;16.35;;;4.70;99.90;;;;;;5015433;28;20030;-77
2021/10/29 05:20:47;;;;;;;36.88;15.80;;;4.70;99.90;;;;;;5023404;28;20526;-75
2021/10/29 05:23:13;;;;;;;26.48;17.50;;;4.70;99.90;;;;;;5020404;28;20030;-77
2021/10/29 05:25:39;;;;;;;24.45;18.73;;;4.70;99.90;;;;;;5019274;28;20033;-76
2021/10/29 05:28:05;;;;;;;23.33;17.42;;;4.70;99.90;;;;;;5018025;28;20034;-76
2021/10/29 05:30:31;;;;;;;21.45;16.65;;;4.60;99.90;;;;;;5015996;28;20033;-75
2021/10/29 05:32:57;;;;;;;18.23;15.77;;;4.60;99.90;;;;;;5014528;28;20034;-76
2021/10/29 05:35:23;;;;;;;17.52;14.88;;;4.60;99.90;;;;;;5014489;28;20030;-75
2021/10/29 05:37:48;;;;;;;20.35;15.20;;;4.60;99.90;;;;;;5013309;28;20459;-75
2021/10/29 05:40:14;;;;;;;21.60;15.05;;;4.60;99.90;;;;;;5013545;28;20113;-77
2021/10/29 05:42:40;;;;;;;22.55;15.35;;;4.60;99.90;;;;;;5014250;28;20030;-76
2021/10/29 05:45:08;;;;;;;21.15;14.38;;;4.60;99.90;;;;;;5014401;28;20033;-76
2021/10/29 05:47:35;;;;;;;18.38;13.68;;;4.60;99.90;;;;;;5015666;28;20125;-76
2021/10/29 05:50:01;;;;;;;15.02;12.05;;;4.70;99.90;;;;;;5014937;28;20030;-76
2021/10/29 05:52:29;;;;;;;14.77;12.45;;;4.80;99.90;;;;;;5013831;28;20164;-78
2021/10/29 05:57:40;;;;;;;13.27;11.55;;;4.90;99.90;;;;;;5004683;28;20029;-75
2021/10/29 06:00:07;;;;;;;15.45;11.35;;;4.90;99.90;;;;;;5019585;28;20105;-77
2021/10/29 06:02:32;;;;;;;15.05;11.02;;;4.90;99.90;;;;;;5006108;28;20525;-75
2021/10/29 06:04:58;;;;;;;13.82;11.77;;;4.90;99.90;;;;;;5014494;28;20057;-77
2021/10/29 06:07:23;;;;;;;12.82;11.45;;;4.80;99.90;;;;;;5013841;28;20091;-76
2021/10/29 06:09:49;;;;;;;14.38;12.88;;;4.90;99.90;;;;;;5014163;28;20030;-77
2021/10/29 06:12:15;;;;;;;13.80;11.73;;;4.90;99.90;;;;;;5014022;28;20036;-76
2021/10/29 06:14:41;;;;;;;12.73;11.40;;;4.70;99.90;;;;;;5028556;28;20076;-76
2021/10/29 06:17:12;;;;;;;14.45;10.57;;;4.60;99.90;;;;;;5013846;28;20413;-76
2021/10/29 06:19:37;;;;;;;12.73;11.43;;;4.50;99.90;;;;;;5014221;28;20072;-76
2021/10/29 06:22:12;;;;;;;16.70;11.02;;;4.50;99.90;;;;;;5015009;28;20037;-76
2021/10/29 06:24:39;;;;;;;12.15;10.95;;;4.60;99.90;;;;;;5016094;28;20470;-77
2021/10/29 06:29:34;;;;;;;12.50;11.02;;;4.70;99.90;;;;;;5015223;28;20040;-77
2021/10/29 06:31:59;;;;;;;13.38;11.65;;;4.70;99.90;;;;;;5015097;28;20527;-76
2021/10/29 06:34:25;;;;;;;11.98;10.65;;;4.80;99.90;;;;;;5014314;28;20418;-77
2021/10/29 06:36:51;;;;;;;12.02;10.85;;;4.80;99.90;;;;;;5013605;28;20036;-76
2021/10/29 06:39:19;;;;;;;12.40;10.77;;;4.80;99.90;;;;;;5014659;28;20022;-76
2021/10/29 06:41:45;;;;;;;15.20;10.70;;;4.90;99.90;;;;;;5011226;28;20496;-76
2021/10/29 06:47:00;;;;;;;10.43;9.45;;;4.90;99.90;;;;;;5013793;28;20033;-76
2021/10/29 07:00:16;;;;;;;11.07;9.65;;;5.30;99.90;;;;;;5025443;28;20037;-75
2021/10/29 07:40:42;;;;;;;10.85;9.55;;;6.70;99.90;;;;;;5012325;28;20068;-76
2021/10/29 07:43:11;;;;;;;11.52;9.57;;;6.80;99.90;;;;;;5011849;28;20026;-76
2021/10/29 07:45:36;;;;;;;10.25;9.15;;;7.00;99.90;;;;;;5012373;28;20053;-76
2021/10/29 07:48:02;;;;;;;12.30;9.00;;;7.30;99.90;;;;;;5012939;28;20446;-76
2021/10/29 07:50:28;;;;;;;12.10;9.77;;;7.40;99.90;;;;;;5012084;28;20140;-77
2021/10/29 07:52:57;;;;;;;12.98;9.40;;;7.50;99.90;;;;;;5013031;28;20169;-76
2021/10/29 07:55:25;;;;;;;11.40;9.52;;;7.70;99.90;;;;;;5012076;28;20028;-76
2021/10/29 07:57:51;;;;;;;14.55;11.73;;;7.80;99.90;;;;;;5012299;28;20107;-77
2021/10/29 08:00:19;;;;;;;19.52;10.55;;;8.10;99.90;;;;;;5011939;28;20577;-76
2021/10/29 08:02:46;;;;;;;10.60;9.50;;;8.20;99.90;;;;;;5018737;28;20082;-76
2021/10/29 08:05:13;;;;;;;16.05;10.13;;;8.20;99.90;;;;;;5018941;28;20049;-76
2021/10/29 08:07:39;;;;;;;11.40;10.05;;;8.20;99.90;;;;;;5012229;28;20096;-77
2021/10/29 08:10:06;;;;;;;12.38;11.07;;;8.20;99.90;;;;;;5019130;28;20073;-77
2021/10/29 08:12:36;;;;;;;12.70;10.70;;;8.20;99.90;;;;;;5019449;28;20028;-76
2021/10/29 08:15:05;;;;;;;14.23;10.13;;;8.30;99.90;;;;;;5018499;28;20034;-76
2021/10/29 08:17:33;;;;;;;11.13;10.02;;;8.60;99.90;;;;;;5015101;28;20096;-74
2021/10/29 08:20:00;;;;;;;12.32;10.25;;;9.30;99.90;;;;;;5019403;28;20357;-75
2021/10/29 08:22:25;;;;;;;13.75;10.80;;;9.50;99.90;;;;;;5019431;28;20025;-74
2021/10/29 08:24:52;;;;;;;11.77;10.57;;;9.50;99.90;;;;;;5018922;28;20026;-74
2021/10/29 08:27:17;;;;;;;16.80;10.63;;;9.30;99.90;;;;;;5006788;28;20070;-75
2021/10/29 08:29:43;;;;;;;16.05;10.52;;;9.20;99.90;;;;;;5018423;28;20061;-75
2021/10/29 08:32:09;;;;;;;12.02;10.10;;;9.30;99.90;;;;;;5018440;28;20033;-74
2021/10/29 08:34:35;;;;;;;12.40;10.43;;;9.60;99.90;;;;;;5017698;28;20430;-75
2021/10/29 08:37:03;;;;;;;11.55;10.05;;;9.60;99.90;;;;;;5016614;28;20176;-75
2021/10/29 08:39:29;;;;;;;15.80;11.52;;;9.70;99.90;;;;;;5019103;28;20488;-74
2021/10/29 08:41:56;;;;;;;11.55;10.38;;;9.60;99.90;;;;;;5019186;28;20041;-74
2021/10/29 08:44:21;;;;;;;19.02;11.15;;;9.60;99.90;;;;;;5018484;28;20080;-75
2021/10/29 08:46:47;;;;;;;17.27;11.95;;;9.50;99.90;;;;;;5010984;28;20026;-74
2021/10/29 08:49:15;;;;;;;16.85;12.80;;;9.30;99.90;;;;;;5014817;28;20048;-74
2021/10/29 08:51:42;;;;;;;19.35;12.00;;;9.40;99.90;;;;;;5019604;28;20103;-75
2021/10/29 08:54:08;;;;;;;16.95;11.32;;;9.10;99.90;;;;;;5019054;28;20101;-77
2021/10/29 08:56:35;;;;;;;16.20;12.32;;;9.40;99.90;;;;;;5018877;28;20028;-75
2021/10/29 08:59:20;;;;;;;13.85;11.10;;;9.50;99.90;;;;;;5020948;28;20030;-74
2021/10/29 09:32:22;;;;;;;16.00;12.20;;;10.70;99.90;;;;;;5015841;28;20037;-74
2021/10/29 09:34:56;;;;;;;14.82;12.13;;;10.30;99.90;;;;;;5014580;28;20034;-75
2021/10/29 09:37:21;;;;;;;15.25;12.15;;;10.50;99.90;;;;;;5003863;28;20046;-73
2021/10/29 09:39:53;;;;;;;17.73;13.18;;;10.70;99.90;;;;;;4996074;28;20325;-74
2021/10/29 09:42:21;;;;;;;14.20;11.80;;;10.80;99.90;;;;;;5012114;28;20120;-75
2021/10/29 09:44:53;;;;;;;17.35;13.32;;;10.70;99.90;;;;;;5014781;28;20418;-74
2021/10/29 09:47:23;;;;;;;13.25;11.95;;;10.60;99.90;;;;;;5013749;28;20022;-73
2021/10/29 09:50:02;;;;;;;13.80;12.10;;;10.80;99.90;;;;;;5014959;28;20038;-75
2021/10/29 09:57:30;;;;;;;16.58;11.95;;;10.70;99.90;;;;;;5014484;28;20030;-74
2021/10/29 10:00:01;;;;;;;16.65;13.43;;;11.10;99.90;;;;;;5014273;28;20044;-76
2021/10/29 10:02:29;;;;;;;16.50;12.82;;;11.40;99.90;;;;;;5015718;28;20053;-76
2021/10/29 10:04:56;;;;;;;16.40;13.73;;;11.40;99.90;;;;;;5018867;28;20057;-76
2021/10/29 10:07:27;;;;;;;16.48;12.73;;;11.60;99.90;;;;;;5035281;28;20041;-75
2021/10/29 10:09:55;;;;;;;17.92;16.02;;;11.70;99.90;;;;;;5032265;28;20010;-77
2021/10/29 10:12:22;;;;;;;15.27;12.75;;;11.90;99.90;;;;;;5033865;28;20466;-74
2021/10/29 10:14:56;;;;;;;17.08;13.63;;;12.00;99.90;;;;;;5020949;28;20026;-76
2021/10/29 10:17:22;;;;;;;15.82;13.10;;;12.00;99.90;;;;;;5017397;28;20025;-77
2021/10/29 10:19:56;;;;;;;16.50;12.68;;;12.10;99.90;;;;;;5018852;28;20053;-76
2021/10/29 10:22:26;;;;;;;21.23;14.55;;;12.20;99.90;;;;;;5016669;28;20072;-77
2021/10/29 10:25:07;;;;;;;18.80;13.70;;;12.20;99.90;;;;;;5014593;28;20113;-76
2021/10/29 10:27:55;;;;;;;17.17;13.95;;;12.20;99.90;;;;;;5016340;28;20478;-77
2021/10/29 10:45:07;;;;;;;15.82;13.95;;;12.80;99.90;;;;;;5009886;28;20037;-76
2021/10/29 10:47:35;;;;;;;18.17;13.90;;;12.90;99.90;;;;;;5016405;28;20049;-76
2021/10/29 10:50:17;;;;;;;15.20;12.80;;;13.00;99.90;;;;;;5015229;28;20033;-76
2021/10/29 10:55:48;;;;;;;16.00;12.48;;;13.10;99.90;;;;;;5014809;28;20117;-75
2021/10/29 10:58:25;;;;;;;18.88;14.80;;;13.20;99.90;;;;;;5016493;28;20095;-77
2021/10/29 11:01:01;;;;;;;15.32;13.75;;;13.30;99.90;;;;;;5016859;28;20017;-76
2021/10/29 11:03:51;;;;;;;16.25;13.80;;;13.30;99.90;;;;;;5020963;28;20033;-75
2021/10/29 11:09:56;;;;;;;15.50;13.50;;;13.40;99.90;;;;;;5019335;28;20025;-77
2021/10/29 11:12:40;;;;;;;16.10;14.40;;;13.60;99.90;;;;;;5019434;28;20094;-76
2021/10/29 11:15:09;;;;;;;18.02;13.68;;;13.60;99.90;;;;;;5031572;28;20018;-77
2021/10/29 11:17:43;;;;;;;16.10;13.82;;;13.70;99.90;;;;;;5016222;28;20048;-77
2021/10/29 11:20:11;;;;;;;17.73;12.60;;;13.80;99.90;;;;;;5018733;28;20049;-77
2021/10/29 11:22:44;;;;;;;21.05;13.98;;;13.70;99.90;;;;;;5018280;28;20029;-76
2021/10/29 11:25:18;;;;;;;16.38;13.20;;;13.90;99.90;;;;;;5022411;28;20025;-77
2021/10/29 11:27:44;;;;;;;18.83;14.05;;;14.00;99.90;;;;;;5025708;28;20686;-77
2021/10/29 11:30:10;;;;;;;18.10;12.48;;;14.10;99.90;;;;;;5036096;28;20108;-78
2021/10/29 11:32:38;;;;;;;16.00;12.35;;;14.20;99.90;;;;;;5039710;28;20022;-77
2021/10/29 11:35:04;;;;;;;14.27;11.65;;;14.30;99.90;;;;;;5032931;28;20488;-77
2021/10/29 11:37:37;;;;;;;13.05;10.85;;;14.40;99.90;;;;;;5035187;28;20068;-77
2021/10/29 11:40:05;;;;;;;16.60;11.60;;;14.40;99.90;;;;;;5037069;28;20028;-79
2021/10/29 11:42:31;;;;;;;12.65;11.38;;;14.50;99.90;;;;;;5029025;28;20030;-77
2021/10/29 11:45:01;;;;;;;12.48;11.20;;;14.60;99.90;;;;;;5036485;28;20028;-76
2021/10/29 11:47:29;;;;;;;12.20;11.00;;;14.60;99.90;;;;;;5033711;28;20036;-76
2021/10/29 11:50:05;;;;;;;14.10;11.50;;;14.60;99.90;;;;;;5035218;28;20057;-78
2021/10/29 11:52:31;;;;;;;11.73;10.52;;;14.70;99.90;;;;;;5034924;28;20540;-78
2021/10/29 11:55:00;;;;;;;14.63;11.35;;;14.80;99.90;;;;;;5035401;28;20034;-76
2021/10/29 11:57:35;;;;;;;13.48;12.10;;;14.90;99.90;;;;;;5037023;28;20025;-76
2021/10/29 12:00:19;;;;;;;13.38;11.13;;;15.00;99.90;;;;;;5054207;28;20036;-77
2021/10/29 12:08:28;;;;;;;13.80;11.93;;;14.90;99.90;;;;;;5032498;28;20061;-75
2021/10/29 12:11:03;;;;;;;12.15;10.88;;;15.10;99.90;;;;;;5028233;28;20017;-75
2021/10/29 12:13:30;;;;;;;13.27;11.30;;;15.30;99.90;;;;;;5033990;28;20025;-76
2021/10/29 12:15:56;;;;;;;13.20;10.93;;;15.30;99.90;;;;;;5034101;28;20083;-75
2021/10/29 12:18:31;;;;;;;12.27;10.18;;;15.40;99.90;;;;;;5031772;28;20556;-76
2021/10/29 12:20:57;;;;;;;12.98;10.88;;;15.50;99.90;;;;;;5033248;28;20164;-74
2021/10/29 12:23:30;;;;;;;13.50;10.93;;;15.50;99.90;;;;;;5031986;28;20025;-76
2021/10/29 12:26:04;;;;;;;13.55;11.05;;;15.50;99.90;;;;;;5032793;28;20022;-76
2021/10/29 12:28:42;;;;;;;13.90;10.98;;;15.50;99.90;;;;;;5033704;28;20017;-75
2021/10/29 12:31:15;;;;;;;11.68;9.57;;;15.40;99.90;;;;;;5033884;28;20037;-74
2021/10/29 13:01:36;;;;;;;9.88;8.45;;;16.20;99.90;;;;;;5030091;28;20036;-76
2021/10/29 13:04:14;;;;;;;11.50;8.68;;;16.20;99.90;;;;;;5031699;28;20142;-77
2021/10/29 13:06:50;;;;;;;11.85;9.20;;;16.30;99.90;;;;;;5029958;28;20493;-75
2021/10/29 13:09:27;;;;;;;9.63;8.70;;;16.30;99.90;;;;;;5041026;28;20268;-76
2021/10/29 13:11:58;;;;;;;9.45;8.55;;;16.40;99.90;;;;;;5072413;28;20047;-74
2021/10/29 13:14:36;;;;;;;11.82;8.55;;;16.40;99.90;;;;;;5070175;28;20001;-74
2021/10/29 13:17:05;;;;;;;8.75;7.85;;;16.40;99.90;;;;;;5057461;28;20112;-76
2021/10/29 13:22:58;;;;;;;9.20;8.25;;;16.60;99.90;;;;;;5039419;28;20040;-75
2021/10/29 13:36:08;;;;;;;8.82;7.93;;;16.60;99.90;;;;;;5044962;28;20048;-80
2021/10/29 14:29:22;;;;;;;8.68;6.78;;;15.60;99.90;;;;;;5022119;28;20056;-78
2021/10/29 14:31:58;;;;;;;8.48;6.20;;;15.80;99.90;;;;;;5041405;28;20029;-78
2021/10/29 14:34:29;;;;;;;8.07;6.53;;;15.90;99.90;;;;;;5039269;28;20032;-77
2021/10/29 14:37:12;;;;;;;6.72;6.13;;;15.80;99.90;;;;;;5039132;28;20025;-80
2021/10/29 14:42:38;;;;;;;6.95;6.25;;;15.40;99.90;;;;;;5019236;28;20072;-76
2021/10/29 14:50:40;;;;;;;6.65;5.80;;;15.20;99.90;;;;;;5036332;28;20040;-76
2021/10/29 15:17:18;;;;;;;7.82;6.72;;;15.10;99.90;;;;;;5032891;28;20075;-74
2021/10/29 15:25:20;;;;;;;7.25;6.53;;;14.50;99.90;;;;;;5024661;28;20055;-76
2021/10/29 15:33:12;;;;;;;10.55;6.90;;;14.10;99.90;;;;;;5037944;28;20488;-77
2021/10/29 15:42:05;;;;;;;8.57;6.43;;;14.10;99.90;;;;;;5033442;28;20051;-73
2021/10/29 15:46:33;;;;;;;9.52;7.70;;;13.80;99.90;;;;;;5039265;28;20393;-74
2021/10/29 15:49:08;;;;;;;9.43;6.60;;;13.70;99.90;;;;;;5015341;28;20056;-74
2021/10/29 15:51:35;;;;;;;8.70;6.70;;;13.80;99.90;;;;;;5011630;28;20057;-74
2021/10/29 15:54:04;;;;;;;7.28;6.55;;;13.70;99.90;;;;;;5012483;28;20026;-74
2021/10/29 15:59:45;;;;;;;8.40;6.22;;;13.40;99.90;;;;;;5012871;28;20109;-74
2021/10/29 16:17:52;;;;;;;11.10;7.82;;;12.50;99.90;;;;;;5028905;28;20117;-74
2021/10/29 16:20:18;;;;;;;9.13;7.50;;;12.40;99.90;;;;;;5032952;28;20017;-74
2021/10/29 16:22:44;;;;;;;13.23;7.60;;;12.30;99.90;;;;;;5050337;28;20025;-74
2021/10/29 16:25:15;;;;;;;12.52;8.00;;;12.10;99.90;;;;;;5045811;28;20040;-75
2021/10/29 16:30:16;;;;;;;12.05;8.73;;;12.00;99.90;;;;;;5027076;28;20021;-76
2021/10/29 16:35:27;;;;;;;10.45;7.20;;;11.80;99.90;;;;;;5025232;28;20076;-74
2021/10/29 16:37:52;;;;;;;8.70;7.35;;;11.70;99.90;;;;;;5037430;28;20099;-74
2021/10/29 16:40:18;;;;;;;10.05;8.25;;;11.60;99.90;;;;;;5034710;28;20447;-75
2021/10/29 16:42:45;;;;;;;9.70;7.97;;;11.70;99.90;;;;;;5017845;28;20029;-74
2021/10/29 16:45:14;;;;;;;14.75;7.90;;;11.70;99.90;;;;;;5024838;28;20539;-74
2021/10/29 16:47:43;;;;;;;10.30;8.18;;;11.60;99.90;;;;;;5036277;28;20037;-74
2021/10/29 16:50:10;;;;;;;12.18;10.68;;;11.60;99.90;;;;;;5035430;28;20056;-74
2021/10/29 16:52:36;;;;;;;10.05;8.70;;;11.50;99.90;;;;;;5035469;28;20025;-74
2021/10/29 16:55:04;;;;;;;8.90;7.90;;;11.40;99.90;;;;;;5032697;28;20121;-73
2021/10/29 16:57:29;;;;;;;11.70;8.20;;;11.30;99.90;;;;;;5015933;28;20029;-74
2021/10/29 16:59:55;;;;;;;9.55;8.57;;;11.20;99.90;;;;;;5015913;28;20022;-73
2021/10/29 17:02:20;;;;;;;13.55;11.10;;;11.10;99.90;;;;;;5027854;28;20556;-74
2021/10/29 17:04:46;;;;;;;12.88;9.95;;;11.00;99.90;;;;;;5035595;28;20042;-75
2021/10/29 17:07:12;;;;;;;15.40;10.45;;;11.00;99.90;;;;;;5035459;28;20392;-74
2021/10/29 17:09:38;;;;;;;12.73;10.30;;;11.00;99.90;;;;;;5022175;28;20386;-75
2021/10/29 17:12:04;;;;;;;12.43;10.25;;;10.80;99.90;;;;;;5031322;28;20103;-76
2021/10/29 17:14:31;;;;;;;12.82;9.98;;;10.70;99.90;;;;;;5041197;28;20029;-73
2021/10/29 17:16:57;;;;;;;16.63;10.07;;;10.60;99.90;;;;;;5034459;28;20037;-73
2021/10/29 17:19:23;;;;;;;12.02;10.65;;;10.60;99.90;;;;;;5024431;28;20018;-73
2021/10/29 17:21:49;;;;;;;14.18;10.05;;;10.60;99.90;;;;;;5034955;28;20034;-74
2021/10/29 17:24:16;;;;;;;14.75;9.00;;;10.60;99.90;;;;;;5025971;28;20042;-74
2021/10/29 17:26:42;;;;;;;12.88;8.73;;;10.60;99.90;;;;;;5015179;28;20040;-75
2021/10/29 17:29:08;;;;;;;13.68;9.95;;;10.50;99.90;;;;;;5015737;28;20100;-74